Time;durP1;ratioP1;P1;durP2;ratioP2;P2;SDS_P1;SDS_P2;PMS_P1;PMS_P2;Temp;Humidity;BMP_temperature;BMP_pressure;BME280_temperature;BME280_humidity;BME280_pressure;Samples;Min_cycle;Max_cycle;Signal;HPM_P1;HPM_P2
2023/12/31 00:00:08;;;;;;;6.97;4.32;;;9.10;99.90;;;;;;5053412;28;20118;-64
2023/12/31 00:02:33;;;;;;;7.55;4.40;;;9.10;99.90;;;;;;5052865;28;20048;-63
2023/12/31 00:04:59;;;;;;;9.93;5.32;;;9.10;99.90;;;;;;5060711;28;20466;-63
2023/12/31 00:07:26;;;;;;;8.88;4.72;;;9.10;99.90;;;;;;5033036;28;20372;-63
2023/12/31 00:09:52;;;;;;;11.25;4.80;;;9.10;99.90;;;;;;5050263;28;20514;-64
2023/12/31 00:12:18;;;;;;;8.20;4.20;;;9.10;99.90;;;;;;5046293;28;20053;-63
2023/12/31 00:14:44;;;;;;;7.45;4.55;;;9.10;99.90;;;;;;5032222;28;20045;-64
2023/12/31 00:17:10;;;;;;;9.48;4.13;;;9.20;99.90;;;;;;5050119;28;20040;-63
2023/12/31 00:19:35;;;;;;;6.45;4.22;;;9.20;99.90;;;;;;5034056;28;20135;-63
2023/12/31 00:22:01;;;;;;;7.75;4.55;;;9.20;99.90;;;;;;5032370;28;20044;-63
2023/12/31 00:24:27;;;;;;;6.05;4.05;;;9.20;99.90;;;;;;5045622;28;20048;-63
2023/12/31 00:26:52;;;;;;;7.43;4.18;;;9.30;99.90;;;;;;5053040;28;20052;-63
2023/12/31 00:29:18;;;;;;;8.00;4.25;;;9.30;99.90;;;;;;5052508;28;20040;-63
2023/12/31 00:31:44;;;;;;;7.38;5.00;;;9.30;99.90;;;;;;5066600;28;20044;-63
2023/12/31 00:34:10;;;;;;;6.85;3.78;;;9.30;99.90;;;;;;5049753;28;20109;-63
2023/12/31 00:36:36;;;;;;;5.28;3.63;;;9.30;99.90;;;;;;5049712;28;20052;-63
2023/12/31 00:39:02;;;;;;;5.32;3.90;;;9.20;99.90;;;;;;5049972;28;20033;-63
2023/12/31 00:41:28;;;;;;;6.82;4.45;;;9.20;99.90;;;;;;5035574;28;20036;-64
2023/12/31 00:43:53;;;;;;;6.75;4.10;;;9.20;99.90;;;;;;5047391;28;20132;-63
2023/12/31 00:46:19;;;;;;;5.88;3.80;;;9.20;99.90;;;;;;5064138;28;20069;-63
2023/12/31 00:48:45;;;;;;;8.25;3.83;;;9.10;99.90;;;;;;5049768;28;20048;-63
2023/12/31 00:51:11;;;;;;;9.48;3.92;;;9.10;99.90;;;;;;5043516;28;21083;-63
2023/12/31 00:53:36;;;;;;;7.30;4.20;;;9.10;99.90;;;;;;5051592;28;20039;-63
2023/12/31 00:56:03;;;;;;;5.80;3.33;;;9.20;99.90;;;;;;5047801;28;20055;-63
2023/12/31 00:58:28;;;;;;;6.57;4.20;;;9.10;99.90;;;;;;5049003;28;20139;-63
2023/12/31 01:00:54;;;;;;;6.57;3.75;;;9.10;99.90;;;;;;5050397;28;20131;-64
2023/12/31 01:03:20;;;;;;;7.28;3.90;;;9.10;99.90;;;;;;5049360;28;20032;-63
2023/12/31 01:05:45;;;;;;;5.43;3.65;;;9.10;99.90;;;;;;5048660;28;20068;-63
2023/12/31 01:08:11;;;;;;;6.60;4.03;;;9.10;99.90;;;;;;5044060;28;20044;-64
2023/12/31 01:10:37;;;;;;;8.18;3.92;;;9.10;99.90;;;;;;5051786;28;20036;-63
2023/12/31 01:13:03;;;;;;;5.25;3.55;;;9.10;99.90;;;;;;5049228;28;20032;-64
2023/12/31 01:15:29;;;;;;;5.63;3.30;;;9.10;99.90;;;;;;5050466;28;20036;-63
2023/12/31 01:17:54;;;;;;;5.05;3.38;;;9.10;99.90;;;;;;5044054;28;20056;-63
2023/12/31 01:20:20;;;;;;;6.18;3.50;;;9.10;99.90;;;;;;5031766;28;20044;-63
2023/12/31 01:22:46;;;;;;;4.68;3.17;;;9.10;99.90;;;;;;5045137;28;20052;-63
2023/12/31 01:25:12;;;;;;;6.05;3.35;;;9.10;99.90;;;;;;5044840;28;20054;-63
2023/12/31 01:27:38;;;;;;;6.60;3.50;;;9.10;99.90;;;;;;5046194;28;20040;-63
2023/12/31 01:30:04;;;;;;;5.78;3.20;;;9.10;99.90;;;;;;5048323;28;20067;-63
2023/12/31 01:32:30;;;;;;;5.32;3.00;;;9.10;99.90;;;;;;5033551;28;20053;-63
2023/12/31 01:34:59;;;;;;;5.40;3.00;;;9.10;99.90;;;;;;5045898;28;20060;-63
2023/12/31 01:37:25;;;;;;;4.60;3.10;;;9.10;99.90;;;;;;5049019;28;20432;-63
2023/12/31 01:39:50;;;;;;;5.35;3.00;;;9.10;99.90;;;;;;5063126;28;20106;-63
2023/12/31 01:42:16;;;;;;;6.95;2.90;;;9.10;99.90;;;;;;5047947;28;20078;-63
2023/12/31 01:44:42;;;;;;;5.15;2.72;;;9.10;99.90;;;;;;5046145;28;20402;-63
2023/12/31 01:47:08;;;;;;;4.65;2.63;;;9.10;99.90;;;;;;5033946;28;20411;-63
2023/12/31 01:49:33;;;;;;;5.40;2.70;;;9.10;99.90;;;;;;5052059;28;20374;-63
2023/12/31 01:52:00;;;;;;;5.63;2.97;;;9.10;99.90;;;;;;5044477;28;20139;-63
2023/12/31 01:54:28;;;;;;;5.78;2.35;;;9.10;99.90;;;;;;5062924;28;20063;-63
2023/12/31 01:56:55;;;;;;;4.43;2.60;;;9.10;99.90;;;;;;5047363;28;20037;-63
2023/12/31 01:59:21;;;;;;;3.55;2.05;;;9.10;99.90;;;;;;5033417;28;20048;-63
2023/12/31 02:01:50;;;;;;;6.93;2.60;;;9.10;99.90;;;;;;5041650;28;20041;-63
2023/12/31 02:04:19;;;;;;;4.88;2.60;;;9.00;99.90;;;;;;5045664;28;20608;-63
2023/12/31 02:06:44;;;;;;;4.70;2.30;;;9.00;99.90;;;;;;5043745;28;20098;-63
2023/12/31 02:09:10;;;;;;;5.93;2.55;;;9.00;99.90;;;;;;5047150;28;20036;-63
2023/12/31 02:11:37;;;;;;;5.30;2.20;;;9.00;99.90;;;;;;5047837;28;20055;-63
2023/12/31 02:14:03;;;;;;;4.35;2.10;;;9.00;99.90;;;;;;5030763;28;20439;-63
2023/12/31 02:16:28;;;;;;;4.30;2.45;;;9.00;99.90;;;;;;5045029;28;20079;-63
2023/12/31 02:18:54;;;;;;;4.30;2.63;;;9.00;99.90;;;;;;5040005;28;20036;-63
2023/12/31 02:21:20;;;;;;;4.05;1.83;;;9.00;99.90;;;;;;5027933;28;20409;-63
2023/12/31 02:23:46;;;;;;;4.45;2.03;;;9.00;99.90;;;;;;5029758;28;20106;-63
2023/12/31 02:26:12;;;;;;;4.22;2.10;;;8.90;99.90;;;;;;5045447;28;20341;-63
2023/12/31 02:28:39;;;;;;;5.10;2.20;;;8.90;99.90;;;;;;5045427;28;20513;-63
2023/12/31 02:31:05;;;;;;;4.97;2.05;;;8.90;99.90;;;;;;5044714;28;20050;-63
2023/12/31 02:33:31;;;;;;;3.45;2.33;;;8.90;99.90;;;;;;5030406;28;20032;-63
2023/12/31 02:35:57;;;;;;;4.30;2.10;;;8.90;99.90;;;;;;5048157;28;20045;-63
2023/12/31 02:38:23;;;;;;;3.20;2.00;;;8.90;99.90;;;;;;5048326;28;20438;-63
2023/12/31 02:40:49;;;;;;;2.78;1.90;;;8.90;99.90;;;;;;5033303;28;20033;-63
2023/12/31 02:43:14;;;;;;;5.65;1.83;;;8.90;99.90;;;;;;5047810;28;20426;-63
2023/12/31 02:45:40;;;;;;;3.30;1.90;;;8.90;99.90;;;;;;5046663;28;20044;-63
2023/12/31 02:48:06;;;;;;;4.20;1.88;;;8.90;99.90;;;;;;5042056;28;20041;-63
2023/12/31 02:50:32;;;;;;;3.88;1.88;;;8.90;99.90;;;;;;5050093;28;20051;-63
2023/12/31 02:52:58;;;;;;;2.50;1.55;;;8.90;99.90;;;;;;5046564;28;20044;-62
2023/12/31 02:55:23;;;;;;;5.25;1.80;;;8.90;99.90;;;;;;5048332;28;20119;-63
2023/12/31 02:57:49;;;;;;;2.42;1.50;;;9.00;99.90;;;;;;5045812;28;20044;-63
2023/12/31 03:00:15;;;;;;;7.15;2.47;;;9.00;99.90;;;;;;5050006;28;20630;-63
2023/12/31 03:02:41;;;;;;;2.58;1.38;;;9.00;99.90;;;;;;5047557;28;20068;-63
2023/12/31 03:05:07;;;;;;;4.72;1.75;;;9.00;99.90;;;;;;5047123;28;20457;-63
2023/12/31 03:07:34;;;;;;;4.28;1.75;;;9.00;99.90;;;;;;5041300;28;20132;-62
2023/12/31 03:10:00;;;;;;;2.80;1.60;;;9.00;99.90;;;;;;5046155;28;20044;-63
2023/12/31 03:12:25;;;;;;;3.40;1.55;;;9.00;99.90;;;;;;5033033;28;20408;-63
2023/12/31 03:14:51;;;;;;;5.35;1.90;;;9.00;99.90;;;;;;5047815;28;20070;-63
2023/12/31 03:17:17;;;;;;;5.30;1.58;;;9.00;99.90;;;;;;5049858;28;20493;-62
2023/12/31 03:19:42;;;;;;;3.75;1.50;;;9.00;99.90;;;;;;5041355;28;20094;-63
2023/12/31 03:22:08;;;;;;;2.00;1.38;;;9.00;99.90;;;;;;5048302;28;20059;-63
2023/12/31 03:24:34;;;;;;;2.88;1.60;;;9.00;99.90;;;;;;5033631;28;20124;-63
2023/12/31 03:26:59;;;;;;;1.88;1.20;;;9.00;99.90;;;;;;5047044;28;20426;-63
2023/12/31 03:29:26;;;;;;;3.25;1.38;;;9.00;99.90;;;;;;5048037;28;20048;-62
2023/12/31 03:31:53;;;;;;;3.88;1.30;;;9.00;99.90;;;;;;5061835;28;20072;-63
2023/12/31 03:34:19;;;;;;;2.95;1.30;;;9.00;99.90;;;;;;5033325;28;20036;-62
2023/12/31 03:36:46;;;;;;;1.83;1.13;;;9.00;99.90;;;;;;5029927;28;20485;-63
2023/12/31 03:39:13;;;;;;;2.03;1.02;;;9.00;99.90;;;;;;5048088;28;20036;-63
2023/12/31 03:41:38;;;;;;;3.70;1.30;;;9.00;99.90;;;;;;5051583;28;20052;-63
2023/12/31 03:44:04;;;;;;;2.30;1.30;;;9.00;99.90;;;;;;5051377;28;20075;-63
2023/12/31 03:46:30;;;;;;;2.15;1.30;;;9.00;99.90;;;;;;5031843;28;20040;-63
2023/12/31 03:48:55;;;;;;;5.10;1.30;;;9.10;99.90;;;;;;5048927;28;20105;-63
2023/12/31 03:51:21;;;;;;;2.28;1.30;;;9.10;99.90;;;;;;5068760;28;20047;-63
2023/12/31 03:53:47;;;;;;;2.70;1.27;;;9.10;99.90;;;;;;5046587;28;20036;-63
2023/12/31 03:56:13;;;;;;;2.13;1.13;;;9.00;99.90;;;;;;5067880;28;20040;-63
2023/12/31 03:58:38;;;;;;;2.75;1.10;;;9.00;99.90;;;;;;5048959;28;20043;-63
2023/12/31 04:01:04;;;;;;;4.13;1.30;;;9.00;99.90;;;;;;5050408;28;20048;-63
2023/12/31 04:03:30;;;;;;;1.80;1.10;;;9.00;99.90;;;;;;5048772;28;20040;-63
2023/12/31 04:05:56;;;;;;;2.55;1.27;;;9.00;99.90;;;;;;5050770;28;20083;-63
2023/12/31 04:08:23;;;;;;;2.97;1.10;;;9.00;99.90;;;;;;5048177;28;20071;-62
2023/12/31 04:10:49;;;;;;;6.38;1.40;;;9.00;99.90;;;;;;5049350;28;20051;-63
2023/12/31 04:13:18;;;;;;;3.00;1.25;;;9.10;99.90;;;;;;5047380;28;20044;-63
2023/12/31 04:15:44;;;;;;;3.03;1.55;;;9.10;99.90;;;;;;5049798;28;20037;-64
2023/12/31 04:18:09;;;;;;;3.72;1.30;;;9.10;99.90;;;;;;5049593;28;20048;-62
2023/12/31 04:20:35;;;;;;;2.70;1.40;;;9.10;99.90;;;;;;5033091;28;20037;-63
2023/12/31 04:23:01;;;;;;;3.25;1.20;;;9.10;99.90;;;;;;5050706;28;20051;-63
2023/12/31 04:25:26;;;;;;;1.52;1.30;;;9.10;99.90;;;;;;5050175;28;20079;-63
2023/12/31 04:27:52;;;;;;;3.70;1.60;;;9.10;99.90;;;;;;5028306;28;20076;-63
2023/12/31 04:30:22;;;;;;;3.50;1.45;;;9.10;99.90;;;;;;5046238;28;20533;-63
2023/12/31 04:32:48;;;;;;;2.03;1.45;;;9.10;99.90;;;;;;5050887;28;20151;-63
2023/12/31 04:35:14;;;;;;;3.97;1.58;;;9.10;99.90;;;;;;5049276;28;20115;-63
2023/12/31 04:37:39;;;;;;;2.83;1.63;;;9.10;99.90;;;;;;5046219;28;20052;-64
2023/12/31 04:40:06;;;;;;;3.70;2.13;;;9.10;99.90;;;;;;5064508;28;20044;-63
2023/12/31 04:42:31;;;;;;;5.60;2.10;;;9.10;99.90;;;;;;5045865;28;20087;-63
2023/12/31 04:44:59;;;;;;;4.45;1.92;;;9.10;99.90;;;;;;5031534;28;20497;-63
2023/12/31 04:47:25;;;;;;;3.78;1.95;;;9.10;99.90;;;;;;5049872;28;20619;-63
2023/12/31 04:49:51;;;;;;;3.60;1.67;;;9.10;99.90;;;;;;5031217;28;20119;-63
2023/12/31 04:52:16;;;;;;;4.25;1.90;;;9.10;99.90;;;;;;5033426;28;20101;-63
2023/12/31 04:54:42;;;;;;;6.07;1.90;;;9.10;99.90;;;;;;5031371;28;20434;-63
2023/12/31 04:57:08;;;;;;;3.13;2.22;;;9.10;99.90;;;;;;5049274;28;20025;-62
2023/12/31 04:59:33;;;;;;;3.03;1.67;;;9.10;99.90;;;;;;5048229;28;20046;-63
2023/12/31 05:01:59;;;;;;;2.60;1.55;;;9.10;99.90;;;;;;5065815;28;21577;-63
2023/12/31 05:04:25;;;;;;;2.47;1.73;;;9.10;99.90;;;;;;5046970;28;20045;-63
2023/12/31 05:06:50;;;;;;;4.07;1.70;;;9.10;99.90;;;;;;5049188;28;20036;-63
2023/12/31 05:09:16;;;;;;;3.30;2.00;;;9.10;99.90;;;;;;5046922;28;20052;-63
2023/12/31 05:11:42;;;;;;;2.80;1.75;;;9.10;99.90;;;;;;5033442;28;20135;-63
2023/12/31 05:14:08;;;;;;;6.82;2.45;;;9.10;99.90;;;;;;5061527;28;20036;-63
2023/12/31 05:16:33;;;;;;;6.40;2.83;;;9.10;99.90;;;;;;5045850;28;20032;-63
2023/12/31 05:19:00;;;;;;;3.83;1.92;;;9.10;99.90;;;;;;5018269;28;20048;-63
2023/12/31 05:21:26;;;;;;;3.00;1.80;;;9.10;99.90;;;;;;5047486;28;20127;-63
2023/12/31 05:23:52;;;;;;;3.67;2.00;;;9.10;99.90;;;;;;5052663;28;20536;-63
2023/12/31 05:26:19;;;;;;;3.80;2.30;;;9.10;99.90;;;;;;5032239;28;20044;-63
2023/12/31 05:28:45;;;;;;;4.82;1.95;;;9.10;99.90;;;;;;5032898;28;20090;-63
2023/12/31 05:31:11;;;;;;;3.95;2.13;;;9.10;99.90;;;;;;5061298;28;20524;-63
2023/12/31 05:33:37;;;;;;;4.65;2.03;;;9.10;99.90;;;;;;5044778;28;20040;-63
2023/12/31 05:36:03;;;;;;;2.65;1.50;;;9.10;99.90;;;;;;5065403;28;20524;-63
2023/12/31 05:38:28;;;;;;;4.95;2.03;;;9.20;99.90;;;;;;5049532;28;20040;-63
2023/12/31 05:40:54;;;;;;;4.28;1.73;;;9.10;99.90;;;;;;5048980;28;20035;-63
2023/12/31 05:43:20;;;;;;;3.00;1.70;;;9.10;99.90;;;;;;5030248;28;20148;-63
2023/12/31 05:45:46;;;;;;;3.83;1.70;;;9.10;99.90;;;;;;5048237;28;20045;-63
2023/12/31 05:48:13;;;;;;;4.43;2.47;;;9.20;99.90;;;;;;5029707;28;20131;-63
2023/12/31 05:50:39;;;;;;;3.75;1.60;;;9.20;99.90;;;;;;5044928;28;20064;-63
2023/12/31 05:53:05;;;;;;;2.42;1.70;;;9.20;99.90;;;;;;5027676;28;20075;-63
2023/12/31 05:55:31;;;;;;;5.35;1.98;;;9.20;99.90;;;;;;5047615;28;20036;-63
2023/12/31 05:57:57;;;;;;;3.65;1.67;;;9.20;99.90;;;;;;5048268;28;20048;-63
2023/12/31 06:00:23;;;;;;;2.78;1.60;;;9.20;99.90;;;;;;5047106;28;20036;-63
2023/12/31 06:02:49;;;;;;;4.72;2.05;;;9.20;99.90;;;;;;5028756;28;20036;-63
2023/12/31 06:05:15;;;;;;;3.95;2.05;;;9.20;99.90;;;;;;5061835;28;20040;-63
2023/12/31 06:07:41;;;;;;;3.35;1.75;;;9.20;99.90;;;;;;5048822;28;20033;-63
2023/12/31 06:10:07;;;;;;;3.95;1.50;;;9.20;99.90;;;;;;5051059;28;20102;-63
2023/12/31 06:12:33;;;;;;;3.22;1.90;;;9.20;99.90;;;;;;5030553;28;20119;-63
2023/12/31 06:14:59;;;;;;;5.03;1.90;;;9.20;99.90;;;;;;5031526;28;20048;-63
2023/12/31 06:17:26;;;;;;;3.97;2.20;;;9.20;99.90;;;;;;5028735;28;20075;-63
2023/12/31 06:19:52;;;;;;;7.22;1.80;;;9.20;99.90;;;;;;5046124;28;20033;-63
2023/12/31 06:22:18;;;;;;;4.07;2.00;;;9.20;99.90;;;;;;5026037;28;20044;-63
2023/12/31 06:24:44;;;;;;;4.68;2.10;;;9.30;99.90;;;;;;5038138;28;20046;-63
2023/12/31 06:27:10;;;;;;;3.42;2.25;;;9.30;99.90;;;;;;5049715;28;20408;-63
2023/12/31 06:29:36;;;;;;;3.15;2.15;;;9.30;99.90;;;;;;5043507;28;20040;-63
2023/12/31 06:32:01;;;;;;;4.75;2.75;;;9.30;99.90;;;;;;5041621;28;20036;-63
2023/12/31 06:34:27;;;;;;;3.15;2.08;;;9.20;99.90;;;;;;5047301;28;20511;-62
2023/12/31 06:36:53;;;;;;;4.60;2.30;;;9.30;99.90;;;;;;5048864;28;20040;-63
2023/12/31 06:39:19;;;;;;;5.88;2.90;;;9.30;99.90;;;;;;5047712;28;20401;-63
2023/12/31 06:41:45;;;;;;;4.15;2.40;;;9.20;99.90;;;;;;5047089;28;20075;-63
2023/12/31 06:44:10;;;;;;;4.50;2.97;;;9.20;99.90;;;;;;5034125;28;20094;-63
2023/12/31 06:46:36;;;;;;;5.63;2.80;;;9.20;99.90;;;;;;5028372;28;20044;-62
2023/12/31 06:49:02;;;;;;;6.28;3.05;;;9.30;99.90;;;;;;5042410;28;20047;-63
2023/12/31 06:51:28;;;;;;;5.60;3.25;;;9.20;99.90;;;;;;5050132;28;20496;-62
2023/12/31 06:53:54;;;;;;;5.68;3.20;;;9.20;99.90;;;;;;5038709;28;20037;-63
2023/12/31 06:56:21;;;;;;;4.63;2.70;;;9.20;99.90;;;;;;5043444;28;20102;-63
2023/12/31 06:58:48;;;;;;;6.05;2.97;;;9.20;99.90;;;;;;5062615;28;20036;-63
2023/12/31 07:01:14;;;;;;;5.47;3.10;;;9.30;99.90;;;;;;5044188;28;20086;-63
2023/12/31 07:03:39;;;;;;;5.90;3.33;;;9.20;99.90;;;;;;5045218;28;20045;-63
2023/12/31 07:06:07;;;;;;;9.68;5.07;;;9.30;99.90;;;;;;5042921;28;20104;-63
2023/12/31 07:08:33;;;;;;;3.58;2.40;;;9.30;99.90;;;;;;5041818;28;20052;-62
2023/12/31 07:10:59;;;;;;;3.78;2.28;;;9.30;99.90;;;;;;5048885;28;20045;-63
2023/12/31 07:13:24;;;;;;;4.65;2.30;;;9.30;99.90;;;;;;5037540;28;20047;-63
2023/12/31 07:15:50;;;;;;;4.40;2.60;;;9.30;99.90;;;;;;5053615;28;20557;-63
2023/12/31 07:18:16;;;;;;;4.72;2.28;;;9.30;99.90;;;;;;5052724;28;20047;-63
2023/12/31 07:20:41;;;;;;;5.32;2.20;;;9.30;99.90;;;;;;5049611;28;20447;-63
2023/12/31 07:23:07;;;;;;;4.40;2.20;;;9.40;99.90;;;;;;5051577;28;20059;-63
2023/12/31 07:25:33;;;;;;;4.53;2.58;;;9.40;99.90;;;;;;5051541;28;20171;-63
2023/12/31 07:27:59;;;;;;;4.40;2.30;;;9.40;99.90;;;;;;5052024;28;20386;-63
2023/12/31 07:30:25;;;;;;;4.80;2.30;;;9.40;99.90;;;;;;5054664;28;20127;-63
2023/12/31 07:32:52;;;;;;;2.60;2.00;;;9.40;99.90;;;;;;5048315;28;20259;-63
2023/12/31 07:35:17;;;;;;;3.65;2.00;;;9.40;99.90;;;;;;5048763;28;20047;-63
2023/12/31 07:37:43;;;;;;;3.50;2.42;;;9.40;99.90;;;;;;5051430;28;20037;-63
2023/12/31 07:40:10;;;;;;;7.35;2.60;;;9.40;99.90;;;;;;5049924;28;20174;-63
2023/12/31 07:42:37;;;;;;;3.95;2.50;;;9.40;99.90;;;;;;5046030;28;20040;-63
2023/12/31 07:45:07;;;;;;;4.45;2.42;;;9.40;99.90;;;;;;5050161;28;20055;-63
2023/12/31 07:47:35;;;;;;;4.72;2.40;;;9.40;99.90;;;;;;5034429;28;20048;-63
2023/12/31 07:50:04;;;;;;;4.35;2.70;;;9.40;99.90;;;;;;5053713;28;20052;-64
2023/12/31 07:52:30;;;;;;;5.63;2.33;;;9.50;99.90;;;;;;5045655;28;20049;-63
2023/12/31 07:54:56;;;;;;;3.03;2.35;;;9.50;99.90;;;;;;5042660;28;20256;-63
2023/12/31 07:57:21;;;;;;;4.47;2.50;;;9.50;99.90;;;;;;5049673;28;20035;-64
2023/12/31 07:59:47;;;;;;;3.92;2.17;;;9.50;99.90;;;;;;5032715;28;20036;-63
2023/12/31 08:02:13;;;;;;;4.47;2.30;;;9.50;99.90;;;;;;5050783;28;20607;-62
2023/12/31 08:04:39;;;;;;;4.05;2.13;;;9.50;99.90;;;;;;5065233;28;20340;-63
2023/12/31 08:07:05;;;;;;;2.85;2.03;;;9.50;99.90;;;;;;5047262;28;20044;-63
2023/12/31 08:09:30;;;;;;;4.20;2.17;;;9.50;99.90;;;;;;5028508;28;20493;-63
2023/12/31 08:11:56;;;;;;;4.43;2.33;;;9.50;99.90;;;;;;5050723;28;20143;-63
2023/12/31 08:14:22;;;;;;;3.72;2.40;;;9.50;99.90;;;;;;5033921;28;20119;-63
2023/12/31 08:16:48;;;;;;;3.53;2.40;;;9.50;99.90;;;;;;5035536;28;20394;-63
2023/12/31 08:19:14;;;;;;;3.17;2.13;;;9.50;99.90;;;;;;5046026;28;20196;-63
2023/12/31 08:21:40;;;;;;;4.72;2.55;;;9.50;99.90;;;;;;5052588;28;20043;-63
2023/12/31 08:24:06;;;;;;;5.60;2.53;;;9.50;99.90;;;;;;5059366;28;20105;-63
2023/12/31 08:26:32;;;;;;;4.25;2.67;;;9.50;99.90;;;;;;5048479;28;20765;-63
2023/12/31 08:28:59;;;;;;;6.22;2.58;;;9.50;99.90;;;;;;5047495;28;20048;-63
2023/12/31 08:31:26;;;;;;;4.45;2.85;;;9.50;99.90;;;;;;5049760;28;20413;-63
2023/12/31 08:33:51;;;;;;;3.92;2.50;;;9.50;99.90;;;;;;5049687;28;20043;-63
2023/12/31 08:36:17;;;;;;;4.28;2.88;;;9.50;99.90;;;;;;5049756;28;20028;-63
2023/12/31 08:38:43;;;;;;;4.82;2.67;;;9.50;99.90;;;;;;5046671;28;20037;-63
2023/12/31 08:41:09;;;;;;;5.22;2.50;;;9.50;99.90;;;;;;5023834;28;20459;-63
2023/12/31 08:43:35;;;;;;;6.97;2.47;;;9.60;99.90;;;;;;5044410;28;20429;-64
2023/12/31 08:46:02;;;;;;;4.25;2.80;;;9.50;99.90;;;;;;5049553;28;20519;-63
2023/12/31 08:48:28;;;;;;;5.00;2.47;;;9.50;99.90;;;;;;5049756;28;20047;-63
2023/12/31 08:50:54;;;;;;;5.32;3.17;;;9.50;99.90;;;;;;5032370;28;20493;-63
2023/12/31 08:53:20;;;;;;;5.80;2.63;;;9.60;99.90;;;;;;5048411;28;20118;-63
2023/12/31 08:55:48;;;;;;;4.45;3.10;;;9.60;99.90;;;;;;5050168;28;20132;-63
2023/12/31 08:58:14;;;;;;;3.85;2.42;;;9.60;99.90;;;;;;5046150;28;20513;-63
2023/12/31 09:00:40;;;;;;;4.95;2.42;;;9.60;99.90;;;;;;5033139;28;20060;-63
2023/12/31 09:03:05;;;;;;;3.83;2.60;;;9.60;99.90;;;;;;5046522;28;20132;-63
2023/12/31 09:05:32;;;;;;;4.28;2.70;;;9.60;99.90;;;;;;5032485;28;20123;-63
2023/12/31 09:07:58;;;;;;;4.50;2.70;;;9.70;99.90;;;;;;5062417;28;20044;-63
2023/12/31 09:10:24;;;;;;;4.15;2.65;;;9.70;99.90;;;;;;5065555;28;20044;-63
2023/12/31 09:12:49;;;;;;;3.45;2.50;;;9.70;99.90;;;;;;5048753;28;20044;-63
2023/12/31 09:15:15;;;;;;;4.00;2.33;;;9.70;99.90;;;;;;5048185;28;20033;-63
2023/12/31 09:17:41;;;;;;;5.43;2.55;;;9.70;99.90;;;;;;5030425;28;20540;-63
2023/12/31 09:20:08;;;;;;;4.47;2.67;;;9.80;99.90;;;;;;5046360;28;20048;-63
2023/12/31 09:22:34;;;;;;;5.72;2.88;;;9.70;99.90;;;;;;5032120;28;20048;-63
2023/12/31 09:25:00;;;;;;;3.88;2.65;;;9.80;99.90;;;;;;5064685;28;20131;-63
2023/12/31 09:27:26;;;;;;;5.30;3.25;;;9.80;99.90;;;;;;5052107;28;20041;-63
2023/12/31 09:29:51;;;;;;;4.55;3.00;;;9.80;99.90;;;;;;5046368;28;20043;-63
2023/12/31 09:32:17;;;;;;;5.82;3.50;;;9.70;99.90;;;;;;5034615;28;20044;-63
2023/12/31 09:34:43;;;;;;;3.97;2.65;;;9.70;99.90;;;;;;5066852;28;20115;-63
2023/12/31 09:37:09;;;;;;;4.85;2.83;;;9.70;99.90;;;;;;5064503;28;20123;-63
2023/12/31 09:39:35;;;;;;;5.50;3.10;;;9.70;99.90;;;;;;5045895;28;20037;-63
2023/12/31 09:42:09;;;;;;;5.78;3.25;;;9.70;99.90;;;;;;5062722;28;20131;-64
2023/12/31 09:44:35;;;;;;;4.25;3.60;;;9.60;99.90;;;;;;5045354;28;20088;-63
2023/12/31 09:47:06;;;;;;;5.55;3.70;;;9.60;99.90;;;;;;5029312;28;20493;-63
2023/12/31 09:49:35;;;;;;;3.88;2.78;;;9.60;99.90;;;;;;5034252;28;20038;-63
2023/12/31 09:52:07;;;;;;;4.80;3.25;;;9.60;99.90;;;;;;5045323;28;20055;-63
2023/12/31 09:54:35;;;;;;;5.18;3.00;;;9.60;99.90;;;;;;5032398;28;20123;-63
2023/12/31 09:57:01;;;;;;;5.65;3.75;;;9.60;99.90;;;;;;5048719;28;20177;-63
2023/12/31 09:59:30;;;;;;;4.55;3.35;;;9.60;99.90;;;;;;5047654;28;20036;-63
2023/12/31 10:02:04;;;;;;;4.65;2.90;;;9.60;99.90;;;;;;5050559;28;20509;-64
2023/12/31 10:04:30;;;;;;;5.90;3.35;;;9.60;99.90;;;;;;5032760;28;20085;-63
2023/12/31 10:06:57;;;;;;;5.15;3.50;;;9.60;99.90;;;;;;5047673;28;20048;-63
2023/12/31 10:09:27;;;;;;;6.10;3.60;;;9.50;99.90;;;;;;5046388;28;20532;-63
2023/12/31 10:11:56;;;;;;;7.38;3.67;;;9.60;99.90;;;;;;5047755;28;20059;-63
2023/12/31 10:14:23;;;;;;;6.18;3.60;;;9.60;99.90;;;;;;5045921;28;20040;-63
2023/12/31 10:16:48;;;;;;;5.60;3.75;;;9.60;99.90;;;;;;5046024;28;20043;-63
2023/12/31 10:19:14;;;;;;;6.07;3.88;;;9.60;99.90;;;;;;5033686;28;20041;-63
2023/12/31 10:21:41;;;;;;;5.10;3.58;;;9.60;99.90;;;;;;5050455;28;20044;-63
2023/12/31 10:24:08;;;;;;;4.93;3.83;;;9.60;99.90;;;;;;5027120;28;20052;-63
2023/12/31 10:26:34;;;;;;;6.97;3.65;;;9.70;99.90;;;;;;5046724;28;20043;-63
2023/12/31 10:29:00;;;;;;;6.47;3.92;;;9.70;99.90;;;;;;5046083;28;20123;-63
2023/12/31 10:31:26;;;;;;;6.25;3.95;;;9.70;99.90;;;;;;5045676;28;20194;-63
2023/12/31 10:33:52;;;;;;;5.55;4.35;;;9.70;99.90;;;;;;5047030;28;20052;-62
2023/12/31 10:36:25;;;;;;;4.82;3.30;;;9.70;99.90;;;;;;5030209;28;20036;-62
2023/12/31 10:38:52;;;;;;;5.80;3.50;;;9.70;99.90;;;;;;5064342;28;20029;-62
2023/12/31 10:41:24;;;;;;;6.22;3.58;;;9.70;99.90;;;;;;5043420;28;20036;-62
2023/12/31 10:43:52;;;;;;;6.00;3.60;;;9.80;99.90;;;;;;5045754;28;20504;-62
2023/12/31 10:46:19;;;;;;;5.20;3.60;;;9.80;99.90;;;;;;5045540;28;20227;-62
2023/12/31 10:49:06;;;;;;;6.25;3.95;;;9.80;99.90;;;;;;5029874;28;20521;-62
2023/12/31 10:51:35;;;;;;;4.90;3.58;;;9.90;99.90;;;;;;5046015;28;20178;-62
2023/12/31 10:54:21;;;;;;;6.57;3.72;;;9.80;99.90;;;;;;5062625;28;20040;-61
2023/12/31 10:56:47;;;;;;;12.13;7.53;;;9.90;99.90;;;;;;5046630;28;20487;-62
2023/12/31 10:59:16;;;;;;;7.85;4.57;;;9.90;99.90;;;;;;5045058;28;20101;-62
2023/12/31 11:01:43;;;;;;;6.93;3.88;;;9.90;99.90;;;;;;5031754;28;20040;-62
2023/12/31 11:04:11;;;;;;;5.93;3.20;;;9.80;99.90;;;;;;5046478;28;20076;-62
2023/12/31 11:06:39;;;;;;;3.75;1.40;;;9.80;99.90;;;;;;5033105;28;20524;-62
2023/12/31 11:09:08;;;;;;;4.13;1.65;;;9.60;99.90;;;;;;5029350;28;20470;-62
2023/12/31 11:11:34;;;;;;;2.47;0.98;;;9.50;99.90;;;;;;5046734;28;20041;-62
2023/12/31 11:14:02;;;;;;;2.50;1.10;;;9.40;99.90;;;;;;5046684;28;20048;-62
2023/12/31 11:16:46;;;;;;;4.75;2.60;;;9.30;99.90;;;;;;5030484;28;20413;-63
2023/12/31 11:19:24;;;;;;;4.70;1.77;;;9.20;99.90;;;;;;5037409;28;20044;-62
2023/12/31 11:21:56;;;;;;;2.42;1.10;;;9.10;99.90;;;;;;5048903;28;20044;-62
2023/12/31 11:24:25;;;;;;;2.85;0.93;;;9.10;99.90;;;;;;5045944;28;20109;-62
2023/12/31 11:27:07;;;;;;;4.90;1.10;;;9.00;99.90;;;;;;5065004;22;20041;-62
2023/12/31 11:29:33;;;;;;;2.58;1.48;;;9.00;99.90;;;;;;5024873;28;20052;-61
2023/12/31 11:31:59;;;;;;;2.25;1.20;;;9.00;99.90;;;;;;5042611;28;20400;-61
2023/12/31 11:34:25;;;;;;;4.05;2.03;;;9.00;99.90;;;;;;5042799;28;20440;-61
2023/12/31 11:36:59;;;;;;;8.85;4.65;;;9.00;99.90;;;;;;5007044;28;20049;-61
2023/12/31 11:39:25;;;;;;;3.60;1.40;;;9.00;99.90;;;;;;5010496;28;20037;-61
2023/12/31 11:41:54;;;;;;;6.22;1.70;;;8.90;99.90;;;;;;4990678;28;20120;-61
2023/12/31 11:44:35;;;;;;;2.10;0.93;;;8.90;99.90;;;;;;5009305;28;20037;-61
2023/12/31 11:47:00;;;;;;;2.80;1.20;;;8.90;99.90;;;;;;5009849;28;20042;-61
2023/12/31 11:49:26;;;;;;;3.38;2.10;;;8.90;99.90;;;;;;5021208;28;20379;-61
2023/12/31 11:51:56;;;;;;;5.40;2.42;;;8.90;99.90;;;;;;5006795;28;20057;-61
2023/12/31 11:54:43;;;;;;;6.43;3.90;;;9.00;99.90;;;;;;4989802;28;20052;-61
2023/12/31 11:57:10;;;;;;;7.68;5.70;;;9.00;99.90;;;;;;5003044;28;20053;-61
2023/12/31 11:59:42;;;;;;;5.63;2.38;;;9.10;99.90;;;;;;5029197;28;20048;-61
2023/12/31 12:02:07;;;;;;;3.80;1.90;;;9.20;99.90;;;;;;4997550;28;20559;-61
2023/12/31 12:04:35;;;;;;;4.55;2.42;;;9.40;99.90;;;;;;5009225;28;20043;-61
2023/12/31 12:07:01;;;;;;;3.30;1.10;;;9.50;99.90;;;;;;5012164;28;20029;-61
2023/12/31 12:09:32;;;;;;;3.05;1.10;;;9.50;99.90;;;;;;5009101;28;20568;-61
2023/12/31 12:12:04;;;;;;;4.60;1.05;;;9.50;99.90;;;;;;4993958;28;20667;-61
2023/12/31 12:14:30;;;;;;;2.05;1.10;;;9.50;99.90;;;;;;5024748;28;20556;-61
2023/12/31 12:16:57;;;;;;;2.20;0.93;;;9.50;99.90;;;;;;4993924;28;20128;-61
2023/12/31 12:19:24;;;;;;;3.63;1.00;;;9.50;99.90;;;;;;5008517;28;20037;-61
2023/12/31 12:21:50;;;;;;;3.10;1.00;;;9.50;99.90;;;;;;5010055;28;20053;-61
2023/12/31 12:24:17;;;;;;;2.55;0.88;;;9.50;99.90;;;;;;5010196;28;20051;-61
2023/12/31 12:26:50;;;;;;;1.77;0.85;;;9.50;99.90;;;;;;5025369;28;20487;-61
2023/12/31 12:29:17;;;;;;;3.33;1.40;;;9.50;99.90;;;;;;5009353;28;20076;-62
2023/12/31 12:31:47;;;;;;;5.00;2.22;;;9.50;99.90;;;;;;5026090;28;20496;-61
2023/12/31 12:34:16;;;;;;;2.55;1.20;;;9.50;99.90;;;;;;4992935;28;20052;-61
2023/12/31 12:36:42;;;;;;;3.05;1.30;;;9.50;99.90;;;;;;4991039;28;20175;-61
2023/12/31 12:39:14;;;;;;;4.03;1.20;;;9.50;99.90;;;;;;4979091;28;20087;-62
2023/12/31 12:41:44;;;;;;;2.75;1.25;;;9.50;99.90;;;;;;5007771;28;20093;-62
2023/12/31 12:44:11;;;;;;;2.92;1.15;;;9.50;99.90;;;;;;5010496;28;20045;-61
2023/12/31 12:46:40;;;;;;;3.90;1.20;;;9.50;99.90;;;;;;5011296;28;20049;-61
2023/12/31 12:49:05;;;;;;;2.05;1.20;;;9.60;99.90;;;;;;5009885;28;20064;-61
2023/12/31 12:51:33;;;;;;;2.50;1.05;;;9.60;99.90;;;;;;5009818;28;20486;-61
2023/12/31 12:54:01;;;;;;;3.25;1.45;;;9.60;99.90;;;;;;5025154;28;20134;-61